Time;durP1;ratioP1;P1;durP2;ratioP2;P2;SDS_P1;SDS_P2;PMS_P1;PMS_P2;Temp;Humidity;BMP_temperature;BMP_pressure;BME280_temperature;BME280_humidity;BME280_pressure;Samples;Min_cycle;Max_cycle;Signal;HPM_P1;HPM_P2
2020/12/08 00:02:23;;;;;;;18.60;11.17;;;;;;;1.28;100.00;98861.92;678973;211;24732;-74
2020/12/08 00:04:51;;;;;;;23.42;14.30;;;;;;;1.39;100.00;98854.20;666035;211;32445;-74
2020/12/08 00:07:18;;;;;;;22.35;14.38;;;;;;;1.51;100.00;98853.23;670365;211;32498;-74
2020/12/08 00:09:46;;;;;;;21.70;13.97;;;;;;;1.39;100.00;98856.75;675269;211;23618;-74
2020/12/08 00:12:14;;;;;;;21.67;13.27;;;;;;;1.26;100.00;98855.62;674249;211;24702;-74
2020/12/08 00:14:42;;;;;;;22.27;12.50;;;;;;;1.17;100.00;98849.95;672900;211;24731;-74
2020/12/08 00:17:10;;;;;;;20.70;12.60;;;;;;;1.09;100.00;98844.14;661631;215;24713;-74
2020/12/08 00:19:38;;;;;;;22.60;12.30;;;;;;;0.88;100.00;98827.89;662392;216;27006;-77
2020/12/08 00:22:06;;;;;;;22.67;12.90;;;;;;;0.86;100.00;98825.92;665668;215;24727;-74
2020/12/08 00:24:34;;;;;;;19.60;11.37;;;;;;;0.83;100.00;98832.53;669336;214;24706;-74
2020/12/08 00:27:02;;;;;;;25.20;16.07;;;;;;;0.98;100.00;98830.07;661560;214;32584;-75
2020/12/08 00:29:30;;;;;;;24.07;17.07;;;;;;;0.96;100.00;98831.94;652484;216;32588;-75
2020/12/08 00:31:58;;;;;;;22.93;13.70;;;;;;;0.89;100.00;98834.64;660125;216;23686;-75
2020/12/08 00:34:26;;;;;;;23.43;13.30;;;;;;;0.95;100.00;98834.16;659332;215;24723;-74
2020/12/08 00:36:54;;;;;;;25.45;15.38;;;;;;;1.20;100.00;98833.07;656276;216;32548;-74
2020/12/08 00:39:22;;;;;;;21.07;13.40;;;;;;;1.11;100.00;98837.61;661072;215;23642;-74
2020/12/08 00:41:51;;;;;;;26.37;13.27;;;;;;;1.05;100.00;98831.70;677159;212;25789;-74
2020/12/08 00:44:19;;;;;;;20.10;12.37;;;;;;;0.97;100.00;98831.47;674848;212;24782;-74
2020/12/08 00:46:48;;;;;;;24.63;12.47;;;;;;;0.97;100.00;98839.96;665924;215;24758;-75
2020/12/08 00:49:16;;;;;;;20.47;12.10;;;;;;;1.11;100.00;98836.34;668701;214;24729;-74
2020/12/08 00:51:44;;;;;;;20.13;11.87;;;;;;;1.04;100.00;98832.17;675972;212;24728;-74
2020/12/08 00:54:12;;;;;;;24.03;12.77;;;;;;;1.05;100.00;98840.20;672322;212;25057;-74
2020/12/08 00:56:41;;;;;;;19.03;11.47;;;;;;;1.21;100.00;98842.84;676532;212;24722;-75
2020/12/08 00:59:13;;;;;;;21.40;12.60;;;;;;;1.18;100.00;98838.31;673933;212;25832;-75
2020/12/08 01:01:37;;;;;;;20.63;13.13;;;;;;;1.19;100.00;98834.00;667389;215;24737;-75
2020/12/08 01:04:08;;;;;;;21.90;12.40;;;;;;;1.24;100.00;98837.00;665425;215;24826;-75
2020/12/08 01:06:33;;;;;;;23.53;13.70;;;;;;;1.09;100.00;98843.33;666390;215;25375;-74
2020/12/08 01:09:00;;;;;;;22.97;13.80;;;;;;;1.12;100.00;98846.92;668367;213;24730;-75
2020/12/08 01:11:29;;;;;;;21.80;13.10;;;;;;;1.11;100.00;98833.31;668164;214;24763;-74
2020/12/08 01:13:56;;;;;;;24.95;16.05;;;;;;;1.35;100.00;98833.61;661948;214;32407;-75
2020/12/08 01:16:25;;;;;;;24.37;14.57;;;;;;;1.16;100.00;98828.66;658882;213;24020;-74
2020/12/08 01:18:53;;;;;;;22.47;13.43;;;;;;;1.14;100.00;98838.22;662295;214;24718;-74
2020/12/08 01:21:21;;;;;;;21.10;12.80;;;;;;;1.14;100.00;98838.68;666015;215;24706;-74
2020/12/08 01:23:48;;;;;;;22.40;12.70;;;;;;;1.13;100.00;98840.42;660726;216;27994;-74
2020/12/08 01:26:22;;;;;;;16.67;11.20;;;;;;;1.15;100.00;98846.70;667756;215;24723;-74
2020/12/08 01:28:49;;;;;;;22.70;13.10;;;;;;;1.19;100.00;98844.25;667049;214;24874;-75
2020/12/08 01:31:17;;;;;;;22.07;12.30;;;;;;;1.25;100.00;98850.63;670567;214;25125;-74
2020/12/08 01:33:45;;;;;;;19.73;11.40;;;;;;;1.21;100.00;98855.17;675872;211;24735;-75
2020/12/08 01:36:13;;;;;;;19.17;11.10;;;;;;;1.15;100.00;98856.48;675785;212;24736;-76
2020/12/08 01:38:41;;;;;;;18.43;11.20;;;;;;;1.21;100.00;98854.36;675391;212;24720;-74
2020/12/08 01:41:09;;;;;;;22.80;11.27;;;;;;;1.24;100.00;98853.65;676743;212;24757;-74
2020/12/08 01:43:46;;;;;;;22.60;12.33;;;;;;;1.26;100.00;98853.06;677429;211;26912;-74
2020/12/08 01:46:14;;;;;;;20.77;11.57;;;;;;;1.39;100.00;98851.63;674797;211;24727;-74
2020/12/08 01:48:42;;;;;;;20.43;12.77;;;;;;;1.40;100.00;98846.85;669649;212;24738;-75
2020/12/08 01:51:10;;;;;;;22.07;12.10;;;;;;;1.43;100.00;98847.45;663142;215;24733;-75
2020/12/08 01:53:39;;;;;;;20.87;13.00;;;;;;;1.36;100.00;98843.73;664314;215;24756;-74
2020/12/08 01:56:07;;;;;;;20.93;12.90;;;;;;;1.28;100.00;98847.84;647912;220;24794;-74
2020/12/08 01:58:35;;;;;;;20.17;12.83;;;;;;;1.34;100.00;98856.31;667659;215;24744;-75
2020/12/08 02:01:03;;;;;;;22.77;12.37;;;;;;;1.33;100.00;98850.37;667289;214;24736;-74
2020/12/08 02:03:30;;;;;;;22.87;13.00;;;;;;;1.37;100.00;98848.38;663046;216;24847;-75
2020/12/08 02:05:58;;;;;;;21.60;14.00;;;;;;;1.29;100.00;98847.72;663529;215;26835;-74
2020/12/08 02:08:28;;;;;;;20.30;13.27;;;;;;;1.37;100.00;98844.55;657617;216;24772;-74
2020/12/08 02:10:56;;;;;;;25.70;13.77;;;;;;;1.33;100.00;98841.88;662150;216;26936;-74
2020/12/08 02:13:24;;;;;;;22.50;13.23;;;;;;;1.24;100.00;98836.19;663099;215;26898;-74
2020/12/08 02:15:52;;;;;;;25.07;14.00;;;;;;;1.28;100.00;98829.92;667961;213;24690;-74
2020/12/08 02:18:20;;;;;;;19.30;12.20;;;;;;;1.23;100.00;98831.54;674003;212;24727;-74
2020/12/08 02:20:49;;;;;;;23.35;16.48;;;;;;;1.29;100.00;98820.83;665762;211;32515;-74
2020/12/08 02:23:17;;;;;;;26.80;15.70;;;;;;;1.14;100.00;98803.65;667304;214;23648;-74
2020/12/08 02:25:45;;;;;;;24.53;14.23;;;;;;;1.08;100.00;98809.23;667691;214;24689;-77
2020/12/08 02:28:12;;;;;;;23.00;12.80;;;;;;;1.01;100.00;98800.42;673146;211;25798;-74
2020/12/08 02:30:40;;;;;;;27.73;17.57;;;;;;;1.09;100.00;98805.73;671533;211;32351;-74
2020/12/08 02:33:08;;;;;;;22.87;14.80;;;;;;;1.09;100.00;98810.05;674256;212;23635;-74
2020/12/08 02:35:36;;;;;;;25.40;15.00;;;;;;;1.05;100.00;98804.83;661059;212;24786;-74
2020/12/08 02:38:04;;;;;;;26.45;18.20;;;;;;;1.17;100.00;98807.24;662325;214;32578;-75
2020/12/08 02:40:32;;;;;;;25.47;15.70;;;;;;;1.17;100.00;98805.97;652238;220;23699;-74
2020/12/08 02:43:00;;;;;;;28.38;18.12;;;;;;;1.24;100.00;98798.59;658844;214;43061;-75
2020/12/08 02:45:28;;;;;;;22.93;15.20;;;;;;;1.19;100.00;98794.31;663760;214;23643;-75
2020/12/08 02:47:56;;;;;;;26.30;16.40;;;;;;;1.26;100.00;98798.47;660990;216;26949;-74
2020/12/08 02:50:23;;;;;;;25.23;15.27;;;;;;;1.17;100.00;98815.39;667599;215;26921;-76
2020/12/08 02:52:51;;;;;;;27.90;17.20;;;;;;;1.27;100.00;98823.14;665266;216;24747;-77
2020/12/08 02:55:20;;;;;;;27.90;16.50;;;;;;;1.36;100.00;98821.15;669232;215;25062;-74
2020/12/08 02:57:49;;;;;;;26.70;15.53;;;;;;;1.37;100.00;98806.94;668478;215;24727;-74
2020/12/08 03:00:17;;;;;;;27.10;15.83;;;;;;;1.47;100.00;98813.43;659718;216;24766;-75
2020/12/08 03:02:45;;;;;;;26.30;15.50;;;;;;;1.43;100.00;98810.31;660803;215;24734;-77
2020/12/08 03:05:12;;;;;;;26.00;15.80;;;;;;;1.55;100.00;98821.77;654109;216;24842;-74
2020/12/08 03:07:40;;;;;;;27.60;15.83;;;;;;;1.54;100.00;98818.87;674359;212;24723;-75
2020/12/08 03:10:08;;;;;;;25.00;15.10;;;;;;;1.58;100.00;98824.92;674784;212;24707;-74
2020/12/08 03:12:36;;;;;;;27.43;15.60;;;;;;;1.57;100.00;98823.30;674904;212;24707;-74
2020/12/08 03:15:05;;;;;;;26.90;15.43;;;;;;;1.66;100.00;98816.61;676898;212;24725;-74
2020/12/08 03:17:33;;;;;;;24.13;15.40;;;;;;;1.57;100.00;98813.52;676356;212;24743;-74
2020/12/08 03:20:00;;;;;;;23.70;13.77;;;;;;;1.48;100.00;98818.43;674592;212;24723;-74
2020/12/08 03:22:28;;;;;;;23.63;13.93;;;;;;;1.42;100.00;98815.55;674250;212;24807;-72
2020/12/08 03:24:56;;;;;;;29.48;19.25;;;;;;;1.59;100.00;98818.86;668888;211;32451;-72
2020/12/08 03:27:24;;;;;;;29.07;15.80;;;;;;;1.56;100.00;98813.98;666942;215;23638;-72
2020/12/08 03:29:52;;;;;;;26.80;15.70;;;;;;;1.65;100.00;98813.70;665224;214;24785;-72
2020/12/08 03:32:20;;;;;;;25.73;15.50;;;;;;;1.61;100.00;98822.11;659026;214;24883;-72
2020/12/08 03:34:47;;;;;;;24.80;15.60;;;;;;;1.57;100.00;98825.86;667702;214;24741;-72
2020/12/08 03:37:16;;;;;;;28.70;19.23;;;;;;;1.76;100.00;98829.84;642437;220;33090;-72
2020/12/08 03:39:43;;;;;;;30.12;19.85;;;;;;;1.95;100.00;98832.19;656805;216;32596;-72
2020/12/08 03:42:11;;;;;;;26.67;17.30;;;;;;;1.88;100.00;98828.05;665698;216;23669;-75
2020/12/08 03:44:39;;;;;;;29.00;17.20;;;;;;;1.78;100.00;98822.03;664492;214;24759;-72
2020/12/08 03:47:07;;;;;;;30.37;15.47;;;;;;;1.69;100.00;98814.63;667171;214;24740;-72
2020/12/08 03:49:35;;;;;;;23.30;14.87;;;;;;;1.59;100.00;98804.77;668743;215;24742;-72
2020/12/08 03:52:03;;;;;;;24.40;15.63;;;;;;;1.55;100.00;98816.64;669305;215;24769;-72
2020/12/08 03:54:31;;;;;;;26.30;15.90;;;;;;;1.57;100.00;98819.92;668547;214;24756;-72
2020/12/08 03:56:59;;;;;;;27.57;16.07;;;;;;;1.49;100.00;98816.68;678083;212;24772;-72
2020/12/08 03:59:27;;;;;;;31.30;20.30;;;;;;;1.70;100.00;98811.60;645929;220;32751;-72
2020/12/08 04:01:55;;;;;;;27.37;16.87;;;;;;;1.51;100.00;98802.00;660357;216;23646;-72
2020/12/08 04:04:23;;;;;;;27.23;17.37;;;;;;;1.38;100.00;98790.63;662698;214;24727;-72
2020/12/08 04:06:51;;;;;;;31.00;16.50;;;;;;;1.46;100.00;98797.72;652444;220;24817;-72
2020/12/08 04:09:18;;;;;;;32.10;17.77;;;;;;;1.45;100.00;98790.98;668976;215;24797;-72
2020/12/08 04:11:46;;;;;;;32.50;17.83;;;;;;;1.44;100.00;98793.19;666376;214;27112;-72
2020/12/08 04:14:14;;;;;;;31.90;20.90;;;;;;;1.44;100.00;98797.03;652709;216;32607;-75
2020/12/08 04:16:42;;;;;;;32.83;21.57;;;;;;;1.53;100.00;98800.12;658893;216;43589;-75
2020/12/08 04:19:10;;;;;;;36.13;20.20;;;;;;;1.58;100.00;98808.27;672672;211;23679;-74
2020/12/08 04:21:38;;;;;;;30.07;17.40;;;;;;;1.58;100.00;98816.42;674869;212;24747;-74
2020/12/08 04:24:06;;;;;;;32.53;17.77;;;;;;;1.78;100.00;98821.56;677558;211;24732;-74
2020/12/08 04:26:34;;;;;;;28.17;16.30;;;;;;;1.75;100.00;98819.72;678439;212;25772;-76
2020/12/08 04:29:02;;;;;;;30.27;17.20;;;;;;;1.78;100.00;98821.56;677823;212;24714;-74
2020/12/08 04:31:30;;;;;;;31.37;17.43;;;;;;;1.75;100.00;98811.56;674343;212;24788;-74
2020/12/08 04:33:57;;;;;;;34.53;21.70;;;;;;;1.72;100.00;98825.09;667904;212;32515;-75
2020/12/08 04:36:25;;;;;;;35.20;21.30;;;;;;;1.84;100.00;98825.86;673338;212;23620;-74
2020/12/08 04:38:53;;;;;;;31.87;18.83;;;;;;;1.78;100.00;98816.43;676821;212;24727;-74
2020/12/08 04:41:21;;;;;;;29.23;17.80;;;;;;;1.79;100.00;98830.06;671743;212;24717;-74
2020/12/08 04:43:49;;;;;;;30.63;16.60;;;;;;;1.82;100.00;98828.99;677221;210;24734;-75
2020/12/08 04:46:19;;;;;;;29.27;17.00;;;;;;;1.85;100.00;98832.61;676284;211;24705;-74
2020/12/08 04:48:47;;;;;;;31.10;16.60;;;;;;;1.90;100.00;98824.88;674584;211;24724;-75
2020/12/08 04:51:15;;;;;;;32.57;18.20;;;;;;;1.91;100.00;98819.28;679583;211;26829;-75
2020/12/08 04:53:43;;;;;;;32.07;18.60;;;;;;;1.85;100.00;98809.55;678104;211;24734;-75
2020/12/08 04:56:11;;;;;;;33.00;17.93;;;;;;;1.80;100.00;98816.30;675876;212;24703;-75
2020/12/08 04:58:39;;;;;;;31.73;18.00;;;;;;;1.82;100.00;98811.86;677291;211;24723;-74
2020/12/08 05:01:07;;;;;;;32.87;18.17;;;;;;;1.82;100.00;98816.99;665023;214;24742;-75
2020/12/08 05:03:36;;;;;;;34.20;18.50;;;;;;;1.85;100.00;98806.98;650367;220;24814;-75
2020/12/08 05:06:03;;;;;;;34.00;18.50;;;;;;;1.73;100.00;98785.25;654693;219;26909;-74
2020/12/08 05:08:31;;;;;;;34.97;16.97;;;;;;;1.65;100.00;98783.77;676890;212;24717;-74
2020/12/08 05:11:07;;;;;;;31.23;18.60;;;;;;;1.66;100.00;98790.52;672614;212;24723;-74
2020/12/08 05:13:35;;;;;;;31.03;17.93;;;;;;;1.70;100.00;98794.47;671340;211;24744;-75
2020/12/08 05:16:03;;;;;;;28.97;16.93;;;;;;;1.72;100.00;98792.59;676557;212;24718;-75
2020/12/08 05:18:31;;;;;;;30.80;16.57;;;;;;;1.74;100.00;98780.94;675356;211;24736;-75
2020/12/08 05:21:07;;;;;;;27.87;16.40;;;;;;;1.68;100.00;98784.79;676037;210;24739;-74
2020/12/08 05:23:40;;;;;;;39.23;23.20;;;;;;;1.75;100.00;98802.59;668302;212;43133;-74
2020/12/08 05:26:08;;;;;;;34.27;21.20;;;;;;;1.72;100.00;98800.75;674870;211;24709;-74
2020/12/08 05:28:37;;;;;;;35.80;19.93;;;;;;;1.75;100.00;98800.03;671832;212;24736;-74
2020/12/08 05:31:05;;;;;;;36.70;23.18;;;;;;;1.96;100.00;98805.14;669946;212;32620;-75
2020/12/08 05:33:35;;;;;;;36.33;19.10;;;;;;;2.01;100.00;98809.91;677617;212;23633;-74
2020/12/08 05:36:03;;;;;;;35.30;18.67;;;;;;;1.92;100.00;98801.69;670422;212;24734;-74
2020/12/08 05:38:33;;;;;;;34.60;19.50;;;;;;;1.95;100.00;98802.70;662864;215;24741;-72
2020/12/08 05:41:02;;;;;;;35.57;19.30;;;;;;;1.97;100.00;98803.39;663846;216;24739;-72
2020/12/08 05:43:35;;;;;;;37.40;18.90;;;;;;;2.05;100.00;98815.12;676235;212;24719;-72
2020/12/08 05:46:04;;;;;;;31.83;18.00;;;;;;;2.03;100.00;98817.01;677587;212;24696;-72
2020/12/08 05:48:32;;;;;;;32.80;18.33;;;;;;;2.16;100.00;98818.09;677261;212;24744;-72
2020/12/08 05:51:02;;;;;;;32.70;18.03;;;;;;;2.15;100.00;98817.76;674209;212;24762;-72
2020/12/08 05:53:30;;;;;;;30.40;17.17;;;;;;;2.11;100.00;98822.77;674661;212;24726;-72
2020/12/08 05:56:04;;;;;;;39.40;19.07;;;;;;;1.98;100.00;98821.70;678396;209;26890;-73
2020/12/08 05:58:32;;;;;;;30.40;16.73;;;;;;;2.02;100.00;98823.89;679810;211;26917;-74
2020/12/08 06:01:03;;;;;;;39.38;22.90;;;;;;;2.14;100.00;98815.66;659721;214;32532;-73
2020/12/08 06:03:31;;;;;;;46.83;21.70;;;;;;;2.04;100.00;98816.06;657163;216;23683;-73
2020/12/08 06:06:07;;;;;;;36.33;20.50;;;;;;;2.18;100.00;98815.75;660670;216;26963;-74
2020/12/08 06:08:42;;;;;;;33.33;19.10;;;;;;;2.08;100.00;98811.84;663158;216;24801;-74
2020/12/08 06:11:10;;;;;;;31.57;17.00;;;;;;;2.14;100.00;98814.85;670206;212;24720;-75
2020/12/08 06:13:40;;;;;;;33.10;18.60;;;;;;;2.07;100.00;98817.09;675031;212;24848;-74
2020/12/08 06:16:15;;;;;;;33.10;18.70;;;;;;;2.12;100.00;98827.80;675100;211;24740;-75
2020/12/08 06:18:43;;;;;;;34.90;18.20;;;;;;;2.15;100.00;98824.98;677997;211;24751;-75
2020/12/08 06:21:17;;;;;;;42.13;25.65;;;;;;;2.28;100.00;98833.29;670391;211;32412;-75
2020/12/08 06:23:45;;;;;;;38.50;22.47;;;;;;;2.16;100.00;98829.64;665973;215;23630;-76
2020/12/08 06:26:13;;;;;;;33.17;19.40;;;;;;;2.11;100.00;98834.31;666370;214;24708;-74
2020/12/08 06:28:41;;;;;;;35.93;19.57;;;;;;;2.10;100.00;98833.50;674426;212;24742;-74
2020/12/08 06:31:09;;;;;;;33.83;18.80;;;;;;;2.05;100.00;98836.45;675459;211;24725;-75
2020/12/08 06:33:46;;;;;;;35.45;22.37;;;;;;;2.16;100.00;98843.27;666168;212;32414;-75
2020/12/08 06:36:14;;;;;;;30.10;18.17;;;;;;;2.12;100.00;98839.81;672980;212;24934;-74
2020/12/08 06:38:42;;;;;;;31.70;18.53;;;;;;;2.11;100.00;98832.56;679193;212;24714;-75
2020/12/08 06:41:10;;;;;;;34.00;19.80;;;;;;;2.06;100.00;98830.38;660274;216;24826;-73
2020/12/08 06:43:41;;;;;;;30.67;17.17;;;;;;;2.04;100.00;98826.33;676762;212;25044;-73
2020/12/08 06:46:09;;;;;;;31.90;18.57;;;;;;;1.97;100.00;98821.34;672412;212;24735;-73
2020/12/08 06:48:39;;;;;;;27.80;17.90;;;;;;;1.90;100.00;98821.04;673070;212;27918;-75
2020/12/08 06:51:15;;;;;;;34.53;17.70;;;;;;;1.92;100.00;98828.60;674335;212;27926;-75
2020/12/08 06:53:43;;;;;;;30.90;17.43;;;;;;;1.86;100.00;98835.05;677781;212;30222;-76
2020/12/08 06:56:11;;;;;;;34.10;20.03;;;;;;;1.90;100.00;98838.17;672183;212;24709;-75
2020/12/08 06:58:47;;;;;;;36.03;17.93;;;;;;;1.94;100.00;98838.26;673574;212;24726;-72
2020/12/08 07:01:15;;;;;;;33.17;18.27;;;;;;;1.94;100.00;98840.81;672146;212;24725;-73
2020/12/08 07:03:42;;;;;;;32.50;19.10;;;;;;;1.96;100.00;98846.16;673426;212;24741;-73
2020/12/08 07:06:11;;;;;;;29.80;17.87;;;;;;;1.95;100.00;98843.26;671976;211;24716;-74
2020/12/08 07:08:41;;;;;;;29.83;16.70;;;;;;;1.93;100.00;98850.26;673478;209;24739;-74
2020/12/08 07:11:07;;;;;;;32.80;19.30;;;;;;;1.92;100.00;98847.36;675910;211;24771;-74
2020/12/08 07:13:35;;;;;;;31.80;17.37;;;;;;;1.88;100.00;98844.70;676920;210;24730;-74
2020/12/08 07:16:02;;;;;;;31.80;18.00;;;;;;;1.86;100.00;98845.77;675380;211;24733;-74
2020/12/08 07:18:31;;;;;;;33.37;18.70;;;;;;;1.88;100.00;98851.58;679187;211;24724;-76
2020/12/08 07:20:59;;;;;;;34.07;17.83;;;;;;;1.78;100.00;98848.94;663681;211;24781;-75
2020/12/08 07:23:27;;;;;;;36.33;19.40;;;;;;;1.82;100.00;98843.09;666094;216;26045;-73
2020/12/08 07:25:55;;;;;;;34.20;19.47;;;;;;;1.79;100.00;98838.56;664874;214;24845;-72
2020/12/08 07:28:22;;;;;;;33.13;17.90;;;;;;;1.84;100.00;98860.47;672251;211;24930;-73
2020/12/08 07:30:51;;;;;;;31.53;19.20;;;;;;;1.89;100.00;98876.27;676569;212;24728;-73
2020/12/08 07:33:19;;;;;;;30.73;18.67;;;;;;;2.02;100.00;98893.58;675728;212;24755;-73
2020/12/08 07:35:47;;;;;;;32.87;18.43;;;;;;;2.05;100.00;98881.32;667973;214;24849;-73
2020/12/08 07:38:14;;;;;;;29.83;18.43;;;;;;;2.02;100.00;98896.14;666910;215;24732;-73
2020/12/08 07:40:42;;;;;;;32.63;19.63;;;;;;;2.08;100.00;98905.89;664775;214;24744;-74
2020/12/08 07:43:10;;;;;;;32.20;18.33;;;;;;;2.18;100.00;98913.66;646172;220;24856;-74
2020/12/08 07:45:42;;;;;;;36.33;20.80;;;;;;;2.15;100.00;98916.48;668025;215;25934;-73
2020/12/08 07:48:10;;;;;;;31.27;18.03;;;;;;;2.16;100.00;98909.13;671411;212;24730;-73
2020/12/08 07:50:38;;;;;;;31.10;18.30;;;;;;;2.00;100.00;98907.00;673217;212;24744;-75
2020/12/08 07:53:06;;;;;;;33.63;17.57;;;;;;;2.03;100.00;98908.02;673682;212;24739;-73
2020/12/08 07:55:39;;;;;;;35.07;20.17;;;;;;;2.00;100.00;98909.56;664063;216;24755;-74
2020/12/08 07:58:07;;;;;;;33.03;18.80;;;;;;;2.03;100.00;98910.59;667295;215;24729;-74
2020/12/08 08:00:35;;;;;;;38.33;20.50;;;;;;;2.04;100.00;98913.03;656525;216;24784;-73
2020/12/08 08:03:02;;;;;;;30.37;17.07;;;;;;;2.12;100.00;98914.98;658995;216;24776;-73
2020/12/08 08:05:30;;;;;;;34.90;19.40;;;;;;;2.12;100.00;98911.61;659064;216;24800;-73
2020/12/08 08:07:58;;;;;;;31.20;18.57;;;;;;;2.15;100.00;98903.20;661606;216;25427;-73
2020/12/08 08:10:26;;;;;;;33.70;18.77;;;;;;;2.15;100.00;98894.22;657617;216;24758;-73
2020/12/08 08:12:54;;;;;;;36.15;22.42;;;;;;;2.27;100.00;98896.27;655986;215;32407;-73
2020/12/08 08:15:22;;;;;;;35.77;19.63;;;;;;;2.20;100.00;98884.86;664120;216;23717;-73
2020/12/08 08:17:50;;;;;;;36.50;23.02;;;;;;;2.29;100.00;98897.75;659745;215;32504;-73
2020/12/08 08:20:18;;;;;;;36.90;20.80;;;;;;;2.25;100.00;98902.80;671076;212;23641;-73
2020/12/08 08:22:46;;;;;;;35.30;21.23;;;;;;;2.23;100.00;98911.06;665424;214;24793;-73
2020/12/08 08:25:14;;;;;;;34.53;18.73;;;;;;;2.22;100.00;98897.89;674895;211;24730;-73
2020/12/08 08:27:42;;;;;;;34.67;22.90;;;;;;;2.36;100.00;98903.19;670457;211;32406;-72
2020/12/08 08:30:10;;;;;;;36.80;21.07;;;;;;;2.37;100.00;98903.05;666500;214;23621;-73
2020/12/08 08:32:39;;;;;;;29.83;18.43;;;;;;;2.40;100.00;98893.03;665294;214;24802;-73
2020/12/08 08:35:07;;;;;;;29.23;17.13;;;;;;;2.36;100.00;98885.23;659528;216;24808;-75
2020/12/08 08:37:35;;;;;;;31.43;18.67;;;;;;;2.33;100.00;98888.86;632175;224;24860;-75
2020/12/08 08:40:03;;;;;;;34.20;17.90;;;;;;;2.38;100.00;98902.11;659630;215;24737;-75
2020/12/08 08:42:32;;;;;;;36.90;19.80;;;;;;;2.61;100.00;98912.25;647478;220;24804;-75
2020/12/08 08:45:00;;;;;;;33.30;18.90;;;;;;;2.60;100.00;98918.33;664790;214;24734;-75
2020/12/08 08:47:29;;;;;;;32.10;18.20;;;;;;;2.58;100.00;98926.63;669164;214;24735;-75
2020/12/08 08:49:56;;;;;;;35.67;20.20;;;;;;;2.68;100.00;98912.91;666108;214;24743;-76
2020/12/08 08:52:24;;;;;;;32.10;18.50;;;;;;;2.66;100.00;98905.78;657889;216;24766;-73
2020/12/08 08:54:52;;;;;;;32.67;20.03;;;;;;;2.76;100.00;98905.84;663511;216;25096;-74
2020/12/08 08:57:21;;;;;;;31.83;18.60;;;;;;;2.68;100.00;98912.91;647275;217;24806;-72
2020/12/08 08:59:49;;;;;;;31.70;17.67;;;;;;;2.62;100.00;98920.29;658735;216;24796;-73
2020/12/08 09:02:17;;;;;;;33.47;18.47;;;;;;;2.70;100.00;98914.53;657990;216;24822;-74
2020/12/08 09:04:44;;;;;;;33.13;19.20;;;;;;;2.80;100.00;98914.09;662023;215;24729;-73
2020/12/08 09:07:12;;;;;;;30.00;18.90;;;;;;;2.79;100.00;98916.31;655235;216;24778;-72
2020/12/08 09:09:40;;;;;;;32.23;19.40;;;;;;;2.91;100.00;98904.55;665935;215;25043;-72
2020/12/08 09:12:08;;;;;;;32.13;19.47;;;;;;;3.03;99.49;98914.74;654610;216;24797;-73
2020/12/08 09:14:36;;;;;;;35.10;21.10;;;;;;;3.29;99.68;98908.20;656301;216;24816;-72
2020/12/08 09:17:04;;;;;;;33.48;22.45;;;;;;;3.49;98.62;98904.72;652852;216;32567;-72
2020/12/08 09:19:32;;;;;;;31.40;19.57;;;;;;;3.36;97.96;98892.59;661350;216;23648;-72
2020/12/08 09:22:00;;;;;;;35.20;19.83;;;;;;;3.32;97.95;98893.80;658978;216;24806;-73
2020/12/08 09:24:27;;;;;;;34.67;20.50;;;;;;;3.25;98.44;98905.09;673969;212;24785;-73
2020/12/08 09:26:55;;;;;;;30.00;18.40;;;;;;;3.27;97.59;98910.10;666726;215;24750;-73
2020/12/08 09:29:24;;;;;;;28.90;18.70;;;;;;;3.34;98.07;98911.19;647296;220;24792;-74
2020/12/08 09:31:55;;;;;;;32.50;19.37;;;;;;;3.39;97.12;98906.95;667131;212;24742;-73
2020/12/08 09:34:23;;;;;;;32.40;18.10;;;;;;;3.28;96.83;98902.73;675603;211;24745;-72
2020/12/08 09:36:51;;;;;;;26.93;16.90;;;;;;;3.21;97.45;98902.42;675948;211;24718;-72
2020/12/08 09:39:19;;;;;;;28.87;17.80;;;;;;;3.31;97.71;98892.66;678524;211;24721;-72
2020/12/08 09:41:47;;;;;;;32.90;18.90;;;;;;;3.35;97.79;98893.53;678354;211;24712;-73
2020/12/08 09:44:15;;;;;;;31.90;19.10;;;;;;;3.51;98.51;98904.59;677973;211;27902;-73
2020/12/08 09:46:43;;;;;;;27.57;16.83;;;;;;;3.33;97.59;98896.72;675668;211;24736;-73
2020/12/08 09:49:11;;;;;;;28.60;18.50;;;;;;;3.30;97.13;98903.41;669681;212;24783;-74
2020/12/08 09:51:39;;;;;;;32.50;22.82;;;;;;;3.28;97.50;98901.45;672831;212;32399;-73
2020/12/08 09:54:07;;;;;;;32.13;19.80;;;;;;;3.36;97.06;98896.45;665724;215;23790;-72
2020/12/08 09:56:35;;;;;;;33.80;20.00;;;;;;;3.63;97.61;98900.14;661875;212;26865;-75
2020/12/08 09:59:03;;;;;;;32.13;20.17;;;;;;;3.84;97.51;98900.86;665830;214;24723;-72
2020/12/08 10:01:31;;;;;;;29.70;18.70;;;;;;;3.75;95.88;98902.46;647174;220;27977;-73
2020/12/08 10:04:00;;;;;;;29.57;19.33;;;;;;;3.94;95.67;98892.67;664920;214;24750;-72
2020/12/08 10:06:28;;;;;;;31.57;19.10;;;;;;;3.98;95.02;98912.50;666810;214;24707;-72
2020/12/08 10:08:57;;;;;;;33.48;23.22;;;;;;;4.16;94.37;98903.95;671537;212;32383;-73
2020/12/08 10:11:25;;;;;;;37.70;23.07;;;;;;;4.15;94.28;98906.66;677746;212;26823;-73
2020/12/08 10:13:52;;;;;;;30.67;20.00;;;;;;;3.95;94.34;98907.63;676544;212;24735;-74
2020/12/08 10:16:20;;;;;;;32.43;18.67;;;;;;;3.92;95.37;98919.45;672623;212;24738;-72
2020/12/08 10:18:48;;;;;;;31.10;21.50;;;;;;;4.09;94.73;98926.52;667866;212;32437;-72
2020/12/08 10:21:18;;;;;;;29.90;19.90;;;;;;;4.01;94.46;98922.51;675389;212;23627;-72
2020/12/08 10:23:47;;;;;;;30.77;19.80;;;;;;;3.87;94.20;98913.44;677722;209;24791;-72
2020/12/08 10:26:15;;;;;;;32.83;19.57;;;;;;;4.04;94.14;98900.37;678554;212;24726;-72
2020/12/08 10:28:43;;;;;;;28.13;18.20;;;;;;;4.04;93.80;98892.17;664777;215;24738;-73
2020/12/08 10:31:12;;;;;;;27.90;18.53;;;;;;;4.17;94.44;98898.33;670541;212;25833;-72
2020/12/08 10:33:42;;;;;;;29.80;19.00;;;;;;;4.27;95.12;98900.91;674560;212;24756;-73
2020/12/08 10:36:10;;;;;;;27.90;17.07;;;;;;;4.06;94.32;98896.70;662308;214;29035;-72
2020/12/08 10:38:38;;;;;;;26.53;17.60;;;;;;;4.12;95.00;98901.33;671014;212;24744;-75
2020/12/08 10:41:05;;;;;;;29.57;18.30;;;;;;;3.99;94.03;98882.78;654444;216;24776;-73
2020/12/08 10:43:33;;;;;;;29.57;18.57;;;;;;;4.17;93.79;98887.56;663846;214;27309;-73
2020/12/08 10:46:01;;;;;;;27.70;17.70;;;;;;;4.14;93.02;98880.60;678952;210;24725;-72
2020/12/08 10:48:29;;;;;;;31.27;18.93;;;;;;;4.26;94.47;98879.50;646307;220;24809;-72
2020/12/08 10:50:57;;;;;;;30.97;19.80;;;;;;;4.22;93.58;98873.47;656855;216;24816;-73
2020/12/08 10:53:25;;;;;;;30.17;18.10;;;;;;;4.27;93.81;98877.27;659222;216;24775;-72
2020/12/08 10:55:53;;;;;;;29.27;20.92;;;;;;;4.32;92.58;98882.80;641485;220;32779;-72
2020/12/08 10:58:21;;;;;;;30.30;20.10;;;;;;;4.55;92.32;98886.36;662216;214;23640;-73
2020/12/08 11:00:48;;;;;;;30.93;18.90;;;;;;;4.59;91.79;98873.53;652003;220;24812;-73
2020/12/08 11:03:16;;;;;;;29.03;18.50;;;;;;;4.50;91.85;98864.87;668764;211;24727;-73
2020/12/08 11:05:44;;;;;;;27.87;17.97;;;;;;;4.45;92.09;98872.21;673394;212;24780;-73
2020/12/08 11:08:12;;;;;;;27.80;17.90;;;;;;;4.54;90.99;98881.69;671237;212;24714;-73
2020/12/08 11:10:41;;;;;;;25.40;17.03;;;;;;;4.40;91.15;98874.41;673292;212;28976;-74
2020/12/08 11:13:08;;;;;;;32.05;21.77;;;;;;;4.75;90.22;98877.12;661018;214;32654;-74
2020/12/08 11:15:36;;;;;;;32.42;22.67;;;;;;;4.96;89.42;98882.08;665649;211;33057;-74
2020/12/08 11:18:04;;;;;;;30.50;21.90;;;;;;;4.92;89.05;98885.05;671584;211;43095;-73
2020/12/08 11:20:32;;;;;;;30.63;19.80;;;;;;;4.83;90.31;98897.52;664294;215;23628;-72
2020/12/08 11:23:00;;;;;;;30.87;19.77;;;;;;;5.24;90.88;98900.93;665588;214;24724;-75
2020/12/08 11:25:28;;;;;;;29.17;17.43;;;;;;;5.11;87.79;98884.17;657771;216;24775;-72